Flight Track Log - Related Links

Times and Time Zones

All times are in EDT time to prevent confusion due to time zone crossing. See the KAP927 flight status page for this flight to view local times or setup timezone preferences in your user account.

Time Position Orientation Groundspeed Altitude Reporting Facility
EDT Latitude Longitude Course Direction KTS MPH feet Rate Location/Type
Wed 01:11:17 PM 42.3667 -70.9833 270° West 152 175 500  Level KA90
Wed 01:12:11 PM 42.3667 -71.0167 270° West 125 144 1,300 667 Climbing KA90
Wed 01:13:05 PM 42.3667 -71.0667 270° West 132 152 1,700 474 Climbing KA90
Wed 01:14:05 PM 42.3667 -71.1167 270° West 130 150 2,200 571 Climbing KA90
Wed 01:15:11 PM 42.3667 -71.1667 270° West 124 143 2,900 667 Climbing KA90
Wed 01:16:11 PM 42.3667 -71.2000 270° West 121 139 3,600 650 Climbing KA90
Wed 01:17:11 PM 42.3667 -71.2500 270° West 109 125 4,200 571 Climbing KA90
Wed 01:18:17 PM 42.3500 -71.3000 246° West 118 136 4,800 524 Climbing KA90
Wed 01:19:17 PM 42.3500 -71.3333 270° West 122 140 5,300 450 Climbing KA90
Wed 01:20:17 PM 42.3333 -71.3833 246° West 124 143 5,700 450 Climbing KA90
Wed 01:21:17 PM 42.3333 -71.4333 270° West 124 143 6,200 491 Climbing KA90
Wed 01:22:07 PM 42.3192 -71.4714 243° Southwest 122 140 6,600 486 Climbing Boston Center
Wed 01:23:08 PM 42.3111 -71.5192 257° West 124 143 7,100 492 Climbing Boston Center
Wed 01:24:09 PM 42.3033 -71.5614 256° West 124 143 7,600 446 Climbing Boston Center
Wed 01:25:09 PM 42.2972 -71.6092 260° West 119 137 8,000 198 Climbing Boston Center
Wed 01:26:10 PM 42.2894 -71.6572 258° West 136 157 8,000 49 Level Boston Center
Wed 01:27:11 PM 42.2833 -71.7133 262° West 148 170 8,100 50 Climbing Boston Center
Wed 01:28:11 PM 42.2756 -71.7694 259° West 153 176 8,100 -50 Level Boston Center
Wed 01:29:12 PM 42.2653 -71.8258 256° West 151 174 8,000 -47 Descending Boston Center
Wed 01:30:19 PM 42.2678 -71.8875 273° West 147 169 8,000 52 Level Boston Center
Wed 01:31:07 PM 42.2681 -71.9294 271° West 147 169 8,100 55 Climbing Boston Center
Wed 01:32:08 PM 42.2703 -71.9828 273° West 141 162 8,100  Level Boston Center
Wed 01:33:09 PM 42.2706 -72.0333 270° West 129 148 8,100  Level Boston Center
Wed 01:34:10 PM 42.2686 -72.0867 267° West 133 153 8,100  Level Boston Center
Wed 01:35:11 PM 42.2728 -72.1342 277° West 129 148 8,100 -49 Level Boston Center
Wed 01:36:12 PM 42.2772 -72.1847 277° West 134 154 8,000  Descending Boston Center
Wed 01:37:25 PM 42.2919 -72.2408 290° West 134 154 8,100 45 Climbing Boston Center
Wed 01:38:25 PM 42.3086 -72.2914 294° West 137 158 8,100 -55 Level Boston Center
Wed 01:39:14 PM 42.3211 -72.3278 295° West 134 154 8,000  Descending Boston Center
Wed 01:40:15 PM 42.3336 -72.3756 290° West 136 157 8,100 49 Climbing Boston Center
Wed 01:41:16 PM 42.3461 -72.4233 290° West 140 161 8,100 -50 Level Boston Center
Wed 01:42:16 PM 42.3608 -72.4739 292° West 136 157 8,000 -47 Descending Boston Center
Wed 01:43:23 PM 42.3775 -72.5244 294° West 138 159 8,000 47 Level Boston Center
Wed 01:44:24 PM 42.3919 -72.5750 291° West 139 160 8,100 49 Climbing Boston Center
Wed 01:45:25 PM 42.4064 -72.6228 292° West 141 162 8,100 -50 Level Boston Center
Wed 01:46:25 PM 42.4231 -72.6708 295° West 141 162 8,000  Descending Boston Center
Wed 01:47:26 PM 42.4356 -72.7214 289° West 139 160 8,100 52 Climbing Boston Center
Wed 01:48:21 PM 42.4500 -72.7664 294° West 139 160 8,100 -52 Level Boston Center
Wed 01:49:22 PM 42.4622 -72.8144 289° West 137 158 8,000 -50 Descending Boston Center
Wed 01:50:22 PM 42.4767 -72.8567 295° West 133 153 8,000 55 Level Boston Center
Wed 01:51:11 PM 42.4869 -72.8989 288° West 131 151 8,100  Climbing Boston Center
Wed 01:52:12 PM 42.5014 -72.9414 295° West 133 153 8,000 -50 Descending Boston Center
Wed 01:53:12 PM 42.5200 -72.9922 296° West 133 153 8,000 50 Level Boston Center
Wed 01:54:13 PM 42.5322 -73.0403 289° West 137 158 8,100 47 Climbing Boston Center
Wed 01:55:20 PM 42.5444 -73.0911 288° West 135 155 8,100 -425 Level Boston Center
Wed 01:56:20 PM 42.5608 -73.1419 294° West 147 169 7,200 -694 Descending Boston Center
Wed 01:57:21 PM 42.5792 -73.2042 292° West 168 193 6,700 -492 Descending Boston Center
Wed 01:58:22 PM 42.5892 -73.2608 283° West 162 186 6,200 -496 Descending Boston Center
Wed 01:59:22 PM 42.5867 -73.3200 267° West 159 183 5,700 -496 Descending Boston Center
Wed 02:00:23 PM 42.5819 -73.3792 264° West 161 185 5,200 -344 Descending Boston Center
Wed 02:01:24 PM 42.5794 -73.4411 267° West 161 185 5,000 -99 Descending Boston Center
Wed 02:02:24 PM 42.5769 -73.4947 266° West 143 165 5,000 -298 Level Boston Center
Wed 02:03:25 PM 42.5722 -73.5508 263° West 149 171 4,400 -590 Descending Boston Center
Wed 02:04:26 PM 42.5839 -73.6158 284° West 168 193 3,800 -595 Descending Boston Center
Wed 02:05:26 PM 42.6022 -73.6756 293° West 165 190 3,200 -595 Descending Boston Center
Wed 02:06:27 PM 42.6222 -73.7325 296° West 172 198 2,600 -639 Descending Boston Center
Wed 02:07:28 PM 42.6553 -73.7753 316° Northwest 171 197 1,900 -645 Descending Boston Center
Wed 02:08:28 PM 42.6903 -73.8017 331° Northwest 151 174 1,300 -678 Descending Boston Center
Wed 02:09:23 PM 42.7278 -73.8081 353° North 128 147 600 -764 Descending Boston Center
Wed 02:11:00 PM 42.7333 -73.8000 332° Northwest  Level FlightAware Approximate
Wed 02:18:00 PM 42.7491 -73.8020 332° Northwest  Level Estimated
Wed 02:19:00 PM 42.7491 -73.8020 332° Northwest  Level Estimated
Wed 02:20:00 PM 42.7491 -73.8020 332° Northwest  Level Estimated

Login

Don't have an account? Register now (free) for customized features, flight alerts, and more!